Time;durP1;ratioP1;P1;durP2;ratioP2;P2;SDS_P1;SDS_P2;PMS_P1;PMS_P2;Temp;Humidity;BMP_temperature;BMP_pressure;BME280_temperature;BME280_humidity;BME280_pressure;Samples;Min_cycle;Max_cycle;Signal;HPM_P1;HPM_P2
2023/10/31 00:01:24;;;;;;;5.83;4.23;;;;;;;;;;5072279;28;20270;-52
2023/10/31 00:03:50;;;;;;;4.37;3.97;;;;;;;;;;5072317;28;20203;-51
2023/10/31 00:06:16;;;;;;;7.20;4.80;;;;;;;;;;5072480;28;20234;-51
2023/10/31 00:08:42;;;;;;;5.17;4.40;;;;;;;;;;5072215;28;20225;-50
2023/10/31 00:11:08;;;;;;;6.00;4.83;;;;;;;;;;5072360;28;20195;-50
2023/10/31 00:13:34;;;;;;;7.63;5.27;;;;;;;;;;5071991;28;20195;-50
2023/10/31 00:16:00;;;;;;;5.87;4.97;;;;;;;;;;5072196;28;20195;-51
2023/10/31 00:18:27;;;;;;;5.80;4.90;;;;;;;;;;5072330;28;20274;-51
2023/10/31 00:20:53;;;;;;;9.37;5.53;;;;;;;;;;5072436;28;20207;-52
2023/10/31 00:23:19;;;;;;;7.00;5.23;;;;;;;;;;5072249;28;20195;-52
2023/10/31 00:25:45;;;;;;;7.67;5.30;;;;;;;;;;5071749;28;20227;-51
2023/10/31 00:28:11;;;;;;;6.07;5.47;;;;;;;;;;5072128;28;20230;-51
2023/10/31 00:30:37;;;;;;;6.07;5.17;;;;;;;;;;5071401;28;20223;-51
2023/10/31 00:33:03;;;;;;;5.97;5.40;;;;;;;;;;5071997;28;20250;-51
2023/10/31 00:35:31;;;;;;;6.33;5.73;;;;;;;;;;5072030;28;20286;-51
2023/10/31 00:37:57;;;;;;;5.70;5.20;;;;;;;;;;5071750;28;20287;-51
2023/10/31 00:40:23;;;;;;;5.67;5.10;;;;;;;;;;5071927;28;20283;-52
2023/10/31 00:42:49;;;;;;;6.17;5.50;;;;;;;;;;5071568;28;20668;-50
2023/10/31 00:45:15;;;;;;;6.33;5.10;;;;;;;;;;5071781;28;20262;-50
2023/10/31 00:47:41;;;;;;;7.03;5.60;;;;;;;;;;5071762;28;20242;-50
2023/10/31 00:50:07;;;;;;;8.93;5.27;;;;;;;;;;5071856;28;20219;-50
2023/10/31 00:52:35;;;;;;;6.73;5.73;;;;;;;;;;5071825;28;20199;-51
2023/10/31 00:55:01;;;;;;;7.07;5.47;;;;;;;;;;5071882;28;20195;-50
2023/10/31 00:57:27;;;;;;;5.77;5.27;;;;;;;;;;5071808;28;20232;-50
2023/10/31 00:59:53;;;;;;;7.10;4.93;;;;;;;;;;5071520;28;20203;-51
2023/10/31 01:02:20;;;;;;;6.73;5.83;;;;;;;;;;5071559;28;20679;-51
2023/10/31 01:04:46;;;;;;;5.77;5.27;;;;;;;;;;5070003;28;20624;-50
2023/10/31 01:07:14;;;;;;;6.23;5.47;;;;;;;;;;5071574;28;20204;-50
2023/10/31 01:09:41;;;;;;;7.93;5.53;;;;;;;;;;5071612;28;20208;-50
2023/10/31 01:12:10;;;;;;;11.07;6.33;;;;;;;;;;5071674;28;20196;-51
2023/10/31 01:14:36;;;;;;;6.40;5.80;;;;;;;;;;5071169;28;20196;-51
2023/10/31 01:17:02;;;;;;;8.17;6.03;;;;;;;;;;5071526;28;20202;-51
2023/10/31 01:19:28;;;;;;;6.37;5.37;;;;;;;;;;5071581;28;20207;-51
2023/10/31 01:21:54;;;;;;;6.53;5.93;;;;;;;;;;5071266;28;20206;-51
2023/10/31 01:24:20;;;;;;;7.67;5.80;;;;;;;;;;5071487;28;20241;-50
2023/10/31 01:26:47;;;;;;;7.00;5.50;;;;;;;;;;5071026;28;20222;-50
2023/10/31 01:29:13;;;;;;;7.47;6.43;;;;;;;;;;5071376;28;20213;-51
2023/10/31 01:31:41;;;;;;;7.67;5.73;;;;;;;;;;5071230;28;20251;-51
2023/10/31 01:34:08;;;;;;;7.00;5.50;;;;;;;;;;5067646;28;20643;-51
2023/10/31 01:36:34;;;;;;;6.07;5.47;;;;;;;;;;5071441;28;20616;-50
2023/10/31 01:39:00;;;;;;;6.07;5.47;;;;;;;;;;5071324;28;20203;-50
2023/10/31 01:41:26;;;;;;;6.63;5.93;;;;;;;;;;5071584;28;20249;-49
2023/10/31 01:43:53;;;;;;;6.40;5.77;;;;;;;;;;5074802;28;20235;-50
2023/10/31 01:46:19;;;;;;;6.87;5.60;;;;;;;;;;5074946;28;20227;-49
2023/10/31 01:48:45;;;;;;;6.47;5.57;;;;;;;;;;5075012;28;20200;-49
2023/10/31 01:51:11;;;;;;;5.83;5.23;;;;;;;;;;5075105;28;20551;-50
2023/10/31 01:53:37;;;;;;;7.93;6.20;;;;;;;;;;5074910;28;20203;-51
2023/10/31 01:56:04;;;;;;;7.53;6.20;;;;;;;;;;5075106;28;20214;-50
2023/10/31 01:58:31;;;;;;;10.10;6.47;;;;;;;;;;5075002;28;20245;-52
2023/10/31 02:01:00;;;;;;;8.80;6.70;;;;;;;;;;5074737;28;20223;-52
2023/10/31 02:03:26;;;;;;;8.20;6.47;;;;;;;;;;5074721;28;20231;-52
2023/10/31 02:05:52;;;;;;;7.53;6.50;;;;;;;;;;5074539;28;20276;-51
2023/10/31 02:08:18;;;;;;;8.13;6.60;;;;;;;;;;5074817;28;20199;-51
2023/10/31 02:10:44;;;;;;;8.73;6.37;;;;;;;;;;5074553;28;20199;-51
2023/10/31 02:13:11;;;;;;;9.00;6.90;;;;;;;;;;5074437;28;20248;-51
2023/10/31 02:15:37;;;;;;;7.67;6.50;;;;;;;;;;5074251;28;20211;-51
2023/10/31 02:18:05;;;;;;;7.00;6.30;;;;;;;;;;5074288;28;20196;-50
2023/10/31 02:20:31;;;;;;;7.63;6.13;;;;;;;;;;5074409;28;20196;-51
2023/10/31 02:22:58;;;;;;;7.90;6.80;;;;;;;;;;5074160;28;20188;-51
2023/10/31 02:25:24;;;;;;;9.37;7.50;;;;;;;;;;5074112;28;20272;-48
2023/10/31 02:27:50;;;;;;;8.20;7.40;;;;;;;;;;5074038;28;20199;-48
2023/10/31 02:30:16;;;;;;;7.80;7.10;;;;;;;;;;5074414;28;20223;-50
2023/10/31 02:32:42;;;;;;;9.33;7.10;;;;;;;;;;5073903;28;20215;-51
2023/10/31 02:35:08;;;;;;;7.07;6.37;;;;;;;;;;5073987;28;20253;-49
2023/10/31 02:37:35;;;;;;;8.53;6.90;;;;;;;;;;5074018;28;20245;-49
2023/10/31 02:40:02;;;;;;;8.17;7.37;;;;;;;;;;5073967;28;20206;-51
2023/10/31 02:42:28;;;;;;;7.53;6.53;;;;;;;;;;5072087;28;20235;-48
2023/10/31 02:44:54;;;;;;;6.00;5.50;;;;;;;;;;5073535;28;20686;-49
2023/10/31 02:47:20;;;;;;;6.60;5.83;;;;;;;;;;5073781;28;20200;-49
2023/10/31 02:49:46;;;;;;;6.87;6.20;;;;;;;;;;5073788;28;20192;-49
2023/10/31 02:52:12;;;;;;;6.70;5.47;;;;;;;;;;5073443;28;20253;-49
2023/10/31 02:54:38;;;;;;;6.13;5.53;;;;;;;;;;5073390;28;20677;-49
2023/10/31 02:57:06;;;;;;;6.93;4.93;;;;;;;;;;5073527;28;20599;-50
2023/10/31 02:59:32;;;;;;;5.67;5.13;;;;;;;;;;5073604;28;20275;-50
2023/10/31 03:01:58;;;;;;;7.37;5.50;;;;;;;;;;5073368;28;20742;-50
2023/10/31 03:04:24;;;;;;;6.43;5.80;;;;;;;;;;5073550;28;20286;-49
2023/10/31 03:06:50;;;;;;;6.83;6.23;;;;;;;;;;5073246;28;20317;-50
2023/10/31 03:09:16;;;;;;;8.13;6.63;;;;;;;;;;5073527;28;20191;-49
2023/10/31 03:11:42;;;;;;;8.03;7.27;;;;;;;;;;5073176;28;20200;-49
2023/10/31 03:14:09;;;;;;;10.97;7.23;;;;;;;;;;5073213;28;20705;-49
2023/10/31 03:16:36;;;;;;;8.17;7.27;;;;;;;;;;5073173;28;20230;-49
2023/10/31 03:19:02;;;;;;;7.17;6.47;;;;;;;;;;5073200;28;20203;-49
2023/10/31 03:21:28;;;;;;;8.27;7.13;;;;;;;;;;5073199;28;20230;-49
2023/10/31 03:23:55;;;;;;;9.30;7.87;;;;;;;;;;5072930;28;20199;-49
2023/10/31 03:26:21;;;;;;;9.17;7.43;;;;;;;;;;5072917;28;20223;-49
2023/10/31 03:28:47;;;;;;;9.40;7.60;;;;;;;;;;5072896;28;20195;-49
2023/10/31 03:31:15;;;;;;;9.03;7.67;;;;;;;;;;5072905;28;20304;-49
2023/10/31 03:33:41;;;;;;;8.13;7.27;;;;;;;;;;5072769;28;20219;-49
2023/10/31 03:36:08;;;;;;;8.43;7.63;;;;;;;;;;5072785;28;20555;-49
2023/10/31 03:38:34;;;;;;;8.40;6.67;;;;;;;;;;5072798;28;20206;-49
2023/10/31 03:41:00;;;;;;;10.37;7.33;;;;;;;;;;5072582;28;20287;-49
2023/10/31 03:43:26;;;;;;;8.47;7.43;;;;;;;;;;5072224;28;20239;-49
2023/10/31 03:45:52;;;;;;;7.97;7.27;;;;;;;;;;5072389;28;20784;-49
2023/10/31 03:48:20;;;;;;;8.60;7.90;;;;;;;;;;5070886;28;20207;-49
2023/10/31 03:50:46;;;;;;;8.93;8.03;;;;;;;;;;5065672;28;20204;-49
2023/10/31 03:53:12;;;;;;;10.87;9.77;;;;;;;;;;5072545;28;20191;-50
2023/10/31 03:55:38;;;;;;;11.83;10.63;;;;;;;;;;5065615;28;20479;-50
2023/10/31 03:58:04;;;;;;;12.97;11.83;;;;;;;;;;5067301;28;20227;-50
2023/10/31 04:00:30;;;;;;;13.30;12.13;;;;;;;;;;5072440;28;20188;-50
2023/10/31 04:02:56;;;;;;;13.47;12.27;;;;;;;;;;5068788;28;20200;-51
2023/10/31 04:05:23;;;;;;;13.00;11.90;;;;;;;;;;5068025;28;20225;-50
2023/10/31 04:07:49;;;;;;;13.80;12.60;;;;;;;;;;5068719;28;20242;-51
2023/10/31 04:10:16;;;;;;;12.10;11.10;;;;;;;;;;5070568;28;20666;-50
2023/10/31 04:12:42;;;;;;;10.53;9.53;;;;;;;;;;5068602;28;20199;-50
2023/10/31 04:15:08;;;;;;;10.87;7.80;;;;;;;;;;5061675;28;20758;-49
2023/10/31 04:17:34;;;;;;;7.20;6.60;;;;;;;;;;5065209;28;20274;-49
2023/10/31 04:20:00;;;;;;;6.50;6.00;;;;;;;;;;5072048;28;20195;-50
2023/10/31 04:22:27;;;;;;;6.03;5.50;;;;;;;;;;5068513;28;20203;-50
2023/10/31 04:24:53;;;;;;;5.00;4.60;;;;;;;;;;5070068;28;20246;-50
2023/10/31 04:27:19;;;;;;;4.37;4.07;;;;;;;;;;5061722;28;20293;-49
2023/10/31 04:29:45;;;;;;;3.80;3.30;;;;;;;;;;5066775;28;20191;-49
2023/10/31 04:32:11;;;;;;;3.23;2.90;;;;;;;;;;5070160;28;20226;-50
2023/10/31 04:34:37;;;;;;;2.70;2.50;;;;;;;;;;5064819;28;20726;-49
2023/10/31 04:37:04;;;;;;;4.40;2.90;;;;;;;;;;5063244;28;20219;-49
2023/10/31 04:39:31;;;;;;;3.00;2.80;;;;;;;;;;5068524;28;20227;-49
2023/10/31 04:41:57;;;;;;;3.40;2.63;;;;;;;;;;5066409;28;20316;-49
2023/10/31 04:44:23;;;;;;;2.60;2.40;;;;;;;;;;5064672;28;20732;-49
2023/10/31 04:46:49;;;;;;;2.00;1.90;;;;;;;;;;5069850;28;20233;-50
2023/10/31 04:49:15;;;;;;;1.90;1.70;;;;;;;;;;5071814;28;20290;-50
2023/10/31 04:51:41;;;;;;;1.27;1.17;;;;;;;;;;5071501;28;20206;-49
2023/10/31 04:54:07;;;;;;;1.47;1.30;;;;;;;;;;5071513;28;20213;-49
2023/10/31 04:56:35;;;;;;;2.03;1.30;;;;;;;;;;5071663;28;20195;-48
2023/10/31 04:59:01;;;;;;;1.70;1.13;;;;;;;;;;5071505;28;20287;-49
2023/10/31 05:01:27;;;;;;;1.07;0.97;;;;;;;;;;5071604;28;20274;-49
2023/10/31 05:03:53;;;;;;;0.90;0.57;;;;;;;;;;5071324;28;20271;-49
2023/10/31 05:06:20;;;;;;;0.90;0.90;;;;;;;;;;5071466;28;20223;-48
2023/10/31 05:08:46;;;;;;;0.60;0.60;;;;;;;;;;5071460;28;20215;-47
2023/10/31 05:11:12;;;;;;;2.67;0.90;;;;;;;;;;5071470;28;20192;-48
2023/10/31 05:13:40;;;;;;;0.90;0.90;;;;;;;;;;5071274;28;20195;-48
2023/10/31 05:16:06;;;;;;;1.10;0.73;;;;;;;;;;5072626;28;20571;-50
2023/10/31 05:18:32;;;;;;;0.97;0.70;;;;;;;;;;5075512;28;20248;-48
2023/10/31 05:20:58;;;;;;;2.37;0.70;;;;;;;;;;5075337;28;20199;-48
2023/10/31 05:23:24;;;;;;;0.80;0.80;;;;;;;;;;5075299;28;20237;-48
2023/10/31 05:25:50;;;;;;;0.70;0.67;;;;;;;;;;5075110;28;20211;-48
2023/10/31 05:28:16;;;;;;;2.50;1.40;;;;;;;;;;5075361;28;20192;-51
2023/10/31 05:30:44;;;;;;;0.80;0.80;;;;;;;;;;5075141;28;20208;-48
2023/10/31 05:33:10;;;;;;;0.60;0.60;;;;;;;;;;5075058;28;20246;-48
2023/10/31 05:35:36;;;;;;;1.13;0.70;;;;;;;;;;5075097;28;20195;-49
2023/10/31 05:38:02;;;;;;;1.20;0.50;;;;;;;;;;5075055;28;20199;-48
2023/10/31 05:40:29;;;;;;;2.23;0.70;;;;;;;;;;5074996;28;20195;-48
2023/10/31 05:42:57;;;;;;;4.03;0.80;;;;;;;;;;5074507;28;20239;-48
2023/10/31 05:45:23;;;;;;;0.87;0.60;;;;;;;;;;5074846;28;20674;-48
2023/10/31 05:47:50;;;;;;;1.60;0.60;;;;;;;;;;5074863;28;20294;-48
2023/10/31 05:50:16;;;;;;;0.90;0.70;;;;;;;;;;5075057;28;20290;-47
2023/10/31 05:52:42;;;;;;;0.80;0.80;;;;;;;;;;5074983;28;20278;-48
2023/10/31 05:55:08;;;;;;;1.00;0.70;;;;;;;;;;5074619;28;20765;-49
2023/10/31 05:57:34;;;;;;;1.97;0.70;;;;;;;;;;5074727;28;20199;-49
2023/10/31 06:00:00;;;;;;;0.97;0.97;;;;;;;;;;5074754;28;20556;-49
2023/10/31 06:02:26;;;;;;;1.17;0.80;;;;;;;;;;5074566;28;20331;-50
2023/10/31 06:04:54;;;;;;;4.73;0.93;;;;;;;;;;5074480;28;20191;-50
2023/10/31 06:07:19;;;;;;;0.80;0.80;;;;;;;;;;5074413;28;20219;-50
2023/10/31 06:09:45;;;;;;;1.37;0.80;;;;;;;;;;5074477;28;20237;-50
2023/10/31 06:12:11;;;;;;;1.37;1.00;;;;;;;;;;5074415;28;20696;-50
2023/10/31 06:14:38;;;;;;;2.43;1.67;;;;;;;;;;5074277;28;20558;-49
2023/10/31 06:17:04;;;;;;;2.30;1.20;;;;;;;;;;5074445;28;20636;-50
2023/10/31 06:19:30;;;;;;;2.60;1.20;;;;;;;;;;5074420;28;20195;-50
2023/10/31 06:21:57;;;;;;;1.53;1.43;;;;;;;;;;5074284;28;20206;-49
2023/10/31 06:24:23;;;;;;;6.00;2.07;;;;;;;;;;5074119;28;20203;-52
2023/10/31 06:26:49;;;;;;;4.97;3.00;;;;;;;;;;5073880;28;20231;-50
2023/10/31 06:29:15;;;;;;;3.10;2.40;;;;;;;;;;5073475;28;20196;-51
2023/10/31 06:31:41;;;;;;;4.33;2.70;;;;;;;;;;5073962;28;20302;-48
2023/10/31 06:34:07;;;;;;;2.50;2.30;;;;;;;;;;5073560;28;20310;-51
2023/10/31 06:36:33;;;;;;;2.97;2.20;;;;;;;;;;5069919;28;20200;-50
2023/10/31 06:39:01;;;;;;;2.07;1.80;;;;;;;;;;5061958;28;20191;-49
2023/10/31 06:41:27;;;;;;;3.17;1.97;;;;;;;;;;5063597;28;20203;-48
2023/10/31 06:43:53;;;;;;;1.93;1.70;;;;;;;;;;5061555;28;20627;-50
2023/10/31 06:46:19;;;;;;;3.63;2.33;;;;;;;;;;5063741;28;20474;-49
2023/10/31 06:48:44;;;;;;;4.63;1.93;;;;;;;;;;5068635;28;20246;-49
2023/10/31 06:51:11;;;;;;;2.30;2.10;;;;;;;;;;5063523;28;20210;-49
2023/10/31 06:53:37;;;;;;;2.20;1.70;;;;;;;;;;5065529;28;20231;-51
2023/10/31 06:56:05;;;;;;;4.13;2.20;;;;;;;;;;5063378;28;20661;-50
2023/10/31 06:58:31;;;;;;;3.93;2.20;;;;;;;;;;5063438;28;20253;-50
2023/10/31 07:00:58;;;;;;;3.10;2.00;;;;;;;;;;5064861;28;20195;-50
2023/10/31 07:03:24;;;;;;;2.97;2.17;;;;;;;;;;5064988;28;20210;-50
2023/10/31 07:05:50;;;;;;;2.17;1.97;;;;;;;;;;5065236;28;20231;-49
2023/10/31 07:08:16;;;;;;;3.20;2.40;;;;;;;;;;5065018;28;20646;-49
2023/10/31 07:10:42;;;;;;;2.53;2.33;;;;;;;;;;5063058;28;20195;-50
2023/10/31 07:13:09;;;;;;;4.87;2.37;;;;;;;;;;5066389;28;20192;-50
2023/10/31 07:15:38;;;;;;;2.93;2.63;;;;;;;;;;5062841;28;20566;-50
2023/10/31 07:18:05;;;;;;;4.17;2.70;;;;;;;;;;5064480;28;20301;-50
2023/10/31 07:20:31;;;;;;;4.30;2.90;;;;;;;;;;5064629;28;20290;-50
2023/10/31 07:22:57;;;;;;;3.30;2.97;;;;;;;;;;5064601;28;20291;-50
2023/10/31 07:25:23;;;;;;;7.20;3.20;;;;;;;;;;5061013;28;20206;-50
2023/10/31 07:27:49;;;;;;;3.10;2.80;;;;;;;;;;5064634;28;20212;-50
2023/10/31 07:30:16;;;;;;;6.27;3.20;;;;;;;;;;5062862;28;20241;-50
2023/10/31 07:32:42;;;;;;;3.30;2.90;;;;;;;;;;5062561;28;20230;-50
2023/10/31 07:35:09;;;;;;;3.80;3.07;;;;;;;;;;5064274;28;20199;-49
2023/10/31 07:37:35;;;;;;;3.70;3.00;;;;;;;;;;5064336;28;20218;-50
2023/10/31 07:40:01;;;;;;;2.80;2.57;;;;;;;;;;5062501;28;20669;-50
2023/10/31 07:42:27;;;;;;;3.20;2.80;;;;;;;;;;5062071;28;20617;-49
2023/10/31 07:44:53;;;;;;;4.00;3.20;;;;;;;;;;5063976;28;20203;-50
2023/10/31 07:47:20;;;;;;;3.33;2.77;;;;;;;;;;5062446;28;20230;-50
2023/10/31 07:49:46;;;;;;;3.17;2.77;;;;;;;;;;5064117;28;20200;-50
2023/10/31 07:52:12;;;;;;;2.70;2.50;;;;;;;;;;5069137;28;20261;-50
2023/10/31 07:54:40;;;;;;;2.83;2.53;;;;;;;;;;5065778;28;20685;-50
2023/10/31 07:57:06;;;;;;;3.93;2.77;;;;;;;;;;5065527;28;20215;-49
2023/10/31 07:59:33;;;;;;;4.13;3.07;;;;;;;;;;5065737;28;20241;-50
2023/10/31 08:01:59;;;;;;;3.20;2.90;;;;;;;;;;5067248;28;20567;-50
2023/10/31 08:04:28;;;;;;;3.53;3.00;;;;;;;;;;5062055;28;20657;-50
2023/10/31 08:06:54;;;;;;;3.13;2.80;;;;;;;;;;5063409;28;20310;-50
2023/10/31 08:09:20;;;;;;;2.50;2.30;;;;;;;;;;5063878;28;20204;-50
2023/10/31 08:11:46;;;;;;;2.40;2.20;;;;;;;;;;5063520;28;20238;-50
2023/10/31 08:14:12;;;;;;;2.50;2.30;;;;;;;;;;5065121;28;20231;-50
2023/10/31 08:16:38;;;;;;;5.13;2.77;;;;;;;;;;5065024;28;20342;-50
2023/10/31 08:19:04;;;;;;;2.43;2.23;;;;;;;;;;5065423;28;20206;-50
2023/10/31 08:21:35;;;;;;;2.53;2.33;;;;;;;;;;5063518;28;20199;-50
2023/10/31 08:24:02;;;;;;;3.90;2.60;;;;;;;;;;5061763;28;20568;-50
2023/10/31 08:26:28;;;;;;;2.93;2.27;;;;;;;;;;5061564;28;20330;-50
2023/10/31 08:28:54;;;;;;;3.63;2.80;;;;;;;;;;5059788;28;20192;-50
2023/10/31 08:31:20;;;;;;;2.90;2.60;;;;;;;;;;5063286;28;20242;-49
2023/10/31 08:33:46;;;;;;;3.30;2.77;;;;;;;;;;5066862;28;20199;-50
2023/10/31 08:36:12;;;;;;;4.57;2.63;;;;;;;;;;5061406;28;20214;-50
2023/10/31 08:38:39;;;;;;;2.73;2.53;;;;;;;;;;5064881;28;20195;-50
2023/10/31 08:41:05;;;;;;;3.57;2.47;;;;;;;;;;5064775;28;20555;-50
2023/10/31 08:43:31;;;;;;;5.10;2.50;;;;;;;;;;5063108;28;20322;-49
2023/10/31 08:45:57;;;;;;;3.00;2.70;;;;;;;;;;5061310;28;20310;-50
2023/10/31 08:48:24;;;;;;;2.80;2.60;;;;;;;;;;5068149;28;20729;-50
2023/10/31 08:50:50;;;;;;;2.60;2.40;;;;;;;;;;5066044;28;20203;-50
2023/10/31 08:53:18;;;;;;;3.23;2.93;;;;;;;;;;5061464;28;20692;-50
2023/10/31 08:55:46;;;;;;;2.70;2.50;;;;;;;;;;5063078;28;20222;-50
2023/10/31 08:58:17;;;;;;;3.67;2.70;;;;;;;;;;5066253;28;20567;-49
2023/10/31 09:00:43;;;;;;;5.13;3.30;;;;;;;;;;5062986;28;20245;-49
2023/10/31 09:03:09;;;;;;;3.17;2.90;;;;;;;;;;5062916;28;20599;-50
2023/10/31 09:05:35;;;;;;;3.33;3.03;;;;;;;;;;5066306;28;20218;-50
2023/10/31 09:08:02;;;;;;;3.20;3.00;;;;;;;;;;5061313;28;20210;-49
2023/10/31 09:10:27;;;;;;;4.37;3.53;;;;;;;;;;5063025;28;20265;-50
2023/10/31 09:12:55;;;;;;;4.00;3.70;;;;;;;;;;5066137;28;20669;-50
2023/10/31 09:15:21;;;;;;;3.50;3.20;;;;;;;;;;5067947;28;20204;-50
2023/10/31 09:17:47;;;;;;;3.53;3.27;;;;;;;;;;5061098;28;20431;-49
2023/10/31 09:20:13;;;;;;;3.60;3.33;;;;;;;;;;5067852;28;20282;-50
2023/10/31 09:22:39;;;;;;;4.97;3.73;;;;;;;;;;5062618;28;20211;-50
2023/10/31 09:25:05;;;;;;;3.60;3.33;;;;;;;;;;5066085;28;20195;-49
2023/10/31 09:27:31;;;;;;;4.00;3.67;;;;;;;;;;5066857;28;20315;-50
2023/10/31 09:29:59;;;;;;;4.00;3.60;;;;;;;;;;5066071;28;20286;-50
2023/10/31 09:32:25;;;;;;;3.73;3.23;;;;;;;;;;5062562;28;20231;-50
2023/10/31 09:34:51;;;;;;;3.63;3.33;;;;;;;;;;5064162;28;20226;-52
2023/10/31 09:37:17;;;;;;;2.93;2.73;;;;;;;;;;5064327;28;20203;-51
2023/10/31 09:39:43;;;;;;;2.80;2.50;;;;;;;;;;5060880;28;20199;-51
2023/10/31 09:42:09;;;;;;;2.90;2.70;;;;;;;;;;5063795;28;20247;-49
2023/10/31 09:44:35;;;;;;;2.53;2.33;;;;;;;;;;5064109;28;20539;-49
2023/10/31 09:47:03;;;;;;;2.17;2.07;;;;;;;;;;5064025;28;20232;-49
2023/10/31 09:49:29;;;;;;;2.37;2.10;;;;;;;;;;5062679;28;20397;-48
2023/10/31 09:51:55;;;;;;;2.30;1.80;;;;;;;;;;5064122;28;21076;-48
2023/10/31 09:54:22;;;;;;;2.10;1.90;;;;;;;;;;5065951;28;20250;-48
2023/10/31 09:56:49;;;;;;;1.90;1.80;;;;;;;;;;5062469;28;20195;-49
2023/10/31 09:59:15;;;;;;;2.20;2.00;;;;;;;;;;5062372;28;20203;-50
2023/10/31 10:01:42;;;;;;;2.07;1.83;;;;;;;;;;5064299;28;20199;-49
2023/10/31 10:04:09;;;;;;;2.00;1.80;;;;;;;;;;5065026;28;21092;-50
2023/10/31 10:06:35;;;;;;;2.63;2.00;;;;;;;;;;5065722;28;20710;-49
2023/10/31 10:09:06;;;;;;;1.83;1.63;;;;;;;;;;5064231;28;20203;-49
2023/10/31 10:11:33;;;;;;;2.37;1.60;;;;;;;;;;5065999;28;20573;-48
2023/10/31 10:13:59;;;;;;;1.83;1.73;;;;;;;;;;5063914;28;20208;-49
2023/10/31 10:16:29;;;;;;;3.50;1.90;;;;;;;;;;5060924;28;20196;-50
2023/10/31 10:18:55;;;;;;;2.57;1.80;;;;;;;;;;5065930;28;20243;-49
2023/10/31 10:21:23;;;;;;;2.77;1.97;;;;;;;;;;5067532;28;20194;-49
2023/10/31 10:23:52;;;;;;;3.07;2.07;;;;;;;;;;5067430;28;20230;-50
2023/10/31 10:26:21;;;;;;;1.93;1.70;;;;;;;;;;5069255;28;20235;-49
2023/10/31 10:28:48;;;;;;;1.50;1.40;;;;;;;;;;5069257;28;20195;-50
2023/10/31 10:31:15;;;;;;;2.30;2.10;;;;;;;;;;5070743;28;20584;-49
2023/10/31 10:33:41;;;;;;;3.00;1.80;;;;;;;;;;5067311;28;20201;-50
2023/10/31 10:36:08;;;;;;;2.33;1.90;;;;;;;;;;5070717;28;20191;-49
2023/10/31 10:38:36;;;;;;;2.80;1.70;;;;;;;;;;5070640;28;20227;-50
2023/10/31 10:41:02;;;;;;;3.13;1.93;;;;;;;;;;5069050;28;20226;-49
2023/10/31 10:43:29;;;;;;;2.23;1.83;;;;;;;;;;5072206;28;20239;-50
2023/10/31 10:45:55;;;;;;;1.87;1.53;;;;;;;;;;5068708;28;20226;-50
2023/10/31 10:48:22;;;;;;;2.10;1.90;;;;;;;;;;5068806;28;20253;-50
2023/10/31 10:50:51;;;;;;;2.13;1.70;;;;;;;;;;5068857;28;20207;-49
2023/10/31 10:53:21;;;;;;;2.27;1.80;;;;;;;;;;5065593;28;20282;-49
2023/10/31 10:55:52;;;;;;;2.90;1.80;;;;;;;;;;5072262;28;20218;-49
2023/10/31 10:58:22;;;;;;;1.93;1.83;;;;;;;;;;5070367;28;20696;-49
2023/10/31 11:00:49;;;;;;;1.70;1.60;;;;;;;;;;5066817;28;20613;-50
2023/10/31 11:03:15;;;;;;;3.00;1.93;;;;;;;;;;5068654;28;20192;-50
2023/10/31 11:05:42;;;;;;;2.93;2.00;;;;;;;;;;5066756;28;20199;-49
2023/10/31 11:08:08;;;;;;;2.10;1.80;;;;;;;;;;5068461;28;21052;-49
2023/10/31 11:10:34;;;;;;;2.10;1.90;;;;;;;;;;5071919;28;20287;-50
2023/10/31 11:13:02;;;;;;;2.57;1.67;;;;;;;;;;5068346;28;20203;-50
2023/10/31 11:15:29;;;;;;;2.33;1.57;;;;;;;;;;5066453;28;20242;-49
2023/10/31 11:17:55;;;;;;;2.97;1.50;;;;;;;;;;5069997;28;20250;-49
2023/10/31 11:20:22;;;;;;;2.10;1.60;;;;;;;;;;5064876;28;20199;-50
2023/10/31 11:22:49;;;;;;;2.83;1.57;;;;;;;;;;5070033;28;20199;-49
2023/10/31 11:25:16;;;;;;;1.73;1.40;;;;;;;;;;5066591;28;20329;-49
2023/10/31 11:27:42;;;;;;;2.90;1.63;;;;;;;;;;5066150;28;20571;-49
2023/10/31 11:30:20;;;;;;;2.07;1.67;;;;;;;;;;5067988;28;20676;-49
2023/10/31 11:32:48;;;;;;;2.17;1.57;;;;;;;;;;5071402;28;20219;-49
2023/10/31 11:35:14;;;;;;;2.37;1.80;;;;;;;;;;5067891;28;20286;-50
2023/10/31 11:37:40;;;;;;;2.63;1.60;;;;;;;;;;5067969;28;20199;-49
2023/10/31 11:40:16;;;;;;;1.67;1.57;;;;;;;;;;5071140;28;20257;-49
2023/10/31 11:42:42;;;;;;;3.23;1.80;;;;;;;;;;5067490;28;20239;-49
2023/10/31 11:45:09;;;;;;;2.03;1.60;;;;;;;;;;5060731;28;20249;-49
2023/10/31 11:47:46;;;;;;;2.53;1.40;;;;;;;;;;5065908;28;20226;-49
2023/10/31 11:50:12;;;;;;;2.83;1.40;;;;;;;;;;5069032;28;20234;-49
2023/10/31 11:52:38;;;;;;;1.53;1.37;;;;;;;;;;5069268;28;20203;-49
2023/10/31 11:55:05;;;;;;;2.77;1.30;;;;;;;;;;5070790;28;20669;-50
2023/10/31 11:57:31;;;;;;;1.40;1.30;;;;;;;;;;5069313;28;20219;-50
2023/10/31 11:59:57;;;;;;;2.10;1.33;;;;;;;;;;5070656;28;20480;-49
2023/10/31 12:02:25;;;;;;;1.50;1.40;;;;;;;;;;5067390;28;20196;-49
2023/10/31 12:04:51;;;;;;;1.90;1.30;;;;;;;;;;5063906;28;20199;-49
2023/10/31 12:07:19;;;;;;;1.50;1.40;;;;;;;;;;5070747;28;20227;-49
2023/10/31 12:09:48;;;;;;;1.50;1.40;;;;;;;;;;5065627;28;20187;-49
2023/10/31 12:12:14;;;;;;;3.13;1.60;;;;;;;;;;5067165;28;20203;-49
2023/10/31 12:14:40;;;;;;;2.77;1.40;;;;;;;;;;5068862;28;20204;-49
2023/10/31 12:17:06;;;;;;;3.83;1.30;;;;;;;;;;5072131;28;20287;-49
2023/10/31 12:19:34;;;;;;;2.70;1.47;;;;;;;;;;5072336;28;20200;-50
2023/10/31 12:22:01;;;;;;;3.03;1.50;;;;;;;;;;5072176;28;20207;-49
2023/10/31 12:24:28;;;;;;;2.63;1.20;;;;;;;;;;5072283;28;20226;-50
2023/10/31 12:26:54;;;;;;;3.00;1.50;;;;;;;;;;5071353;28;20272;-50
2023/10/31 12:29:20;;;;;;;1.70;1.23;;;;;;;;;;5071981;28;20211;-49
2023/10/31 12:31:47;;;;;;;1.77;1.13;;;;;;;;;;5072107;28;20223;-50
2023/10/31 12:34:14;;;;;;;1.27;1.13;;;;;;;;;;5072057;28;20195;-49
2023/10/31 12:36:41;;;;;;;4.57;1.40;;;;;;;;;;5072022;28;20237;-50
2023/10/31 12:39:09;;;;;;;1.20;1.10;;;;;;;;;;5071682;28;20681;-50
2023/10/31 12:41:35;;;;;;;5.10;1.53;;;;;;;;;;5071720;28;20222;-50
2023/10/31 12:44:01;;;;;;;2.77;1.23;;;;;;;;;;5071786;28;20199;-50
2023/10/31 12:46:30;;;;;;;3.13;1.20;;;;;;;;;;5071933;28;20235;-50
2023/10/31 12:48:56;;;;;;;2.73;1.40;;;;;;;;;;5071787;28;20287;-49
2023/10/31 12:51:22;;;;;;;1.53;1.00;;;;;;;;;;5071963;28;20196;-49
2023/10/31 12:53:50;;;;;;;1.77;1.17;;;;;;;;;;5071895;28;20196;-50
2023/10/31 12:56:32;;;;;;;1.10;1.00;;;;;;;;;;5071854;28;20250;-50
2023/10/31 12:59:01;;;;;;;2.17;1.23;;;;;;;;;;5071620;28;20203;-50
2023/10/31 13:01:27;;;;;;;1.27;1.10;;;;;;;;;;5071878;28;20195;-49
2023/10/31 13:03:53;;;;;;;1.83;1.17;;;;;;;;;;5071988;28;20221;-51
2023/10/31 13:06:20;;;;;;;1.90;1.00;;;;;;;;;;5071539;28;20318;-49
2023/10/31 13:08:46;;;;;;;0.93;0.90;;;;;;;;;;5071627;28;20200;-50
2023/10/31 13:11:14;;;;;;;1.17;1.07;;;;;;;;;;5071544;28;20202;-50
2023/10/31 13:13:40;;;;;;;2.30;1.00;;;;;;;;;;5071783;28;20207;-50
2023/10/31 13:16:06;;;;;;;1.50;1.10;;;;;;;;;;5071592;28;20203;-49
2023/10/31 13:18:32;;;;;;;1.47;0.77;;;;;;;;;;5071758;28;20267;-48
2023/10/31 13:20:58;;;;;;;1.80;1.03;;;;;;;;;;5071596;28;20199;-48
2023/10/31 13:23:24;;;;;;;2.10;1.07;;;;;;;;;;5071610;28;20677;-48
2023/10/31 13:25:50;;;;;;;3.50;0.97;;;;;;;;;;5071495;28;20211;-49
2023/10/31 13:28:17;;;;;;;1.83;0.90;;;;;;;;;;5071699;28;20211;-49
2023/10/31 13:30:45;;;;;;;3.77;0.90;;;;;;;;;;5071586;28;20206;-49
2023/10/31 13:33:11;;;;;;;1.57;1.00;;;;;;;;;;5071344;28;20580;-49
2023/10/31 13:35:37;;;;;;;1.50;1.00;;;;;;;;;;5071454;28;20492;-49
2023/10/31 13:38:03;;;;;;;3.93;1.13;;;;;;;;;;5074227;28;20674;-49
2023/10/31 13:40:29;;;;;;;2.00;1.10;;;;;;;;;;5075531;28;20199;-49
2023/10/31 13:42:55;;;;;;;1.80;1.10;;;;;;;;;;5075096;28;20231;-49
2023/10/31 13:45:23;;;;;;;2.07;0.70;;;;;;;;;;5075304;28;20203;-49
2023/10/31 13:47:49;;;;;;;1.10;1.00;;;;;;;;;;5075118;28;20232;-49
2023/10/31 13:50:15;;;;;;;1.57;1.10;;;;;;;;;;5075120;28;20286;-49
2023/10/31 13:52:42;;;;;;;1.40;1.13;;;;;;;;;;5074975;28;20204;-49
2023/10/31 13:55:08;;;;;;;1.10;1.10;;;;;;;;;;5072686;28;20191;-48
2023/10/31 13:57:34;;;;;;;1.13;1.07;;;;;;;;;;5074723;28;20199;-48
2023/10/31 14:00:00;;;;;;;1.37;0.90;;;;;;;;;;5074230;28;20203;-49
2023/10/31 14:02:28;;;;;;;0.70;0.70;;;;;;;;;;5074002;28;20187;-49
2023/10/31 14:04:54;;;;;;;3.23;1.20;;;;;;;;;;5074198;28;20724;-48
2023/10/31 14:07:24;;;;;;;1.40;1.30;;;;;;;;;;5074189;28;20231;-48
2023/10/31 14:09:50;;;;;;;2.67;1.10;;;;;;;;;;5074244;28;20593;-48
2023/10/31 14:12:17;;;;;;;3.97;1.30;;;;;;;;;;5074275;28;20662;-49
2023/10/31 14:14:43;;;;;;;0.97;0.90;;;;;;;;;;5074512;28;20205;-50
2023/10/31 14:17:09;;;;;;;1.70;1.20;;;;;;;;;;5074503;28;20744;-50
2023/10/31 14:19:36;;;;;;;1.73;1.40;;;;;;;;;;5074613;28;20206;-49
2023/10/31 14:22:02;;;;;;;2.13;1.33;;;;;;;;;;5074603;28;20217;-50
2023/10/31 14:24:28;;;;;;;2.00;1.13;;;;;;;;;;5074522;28;20249;-49
2023/10/31 14:26:54;;;;;;;2.30;1.10;;;;;;;;;;5074203;28;20319;-50
2023/10/31 14:29:20;;;;;;;1.73;1.20;;;;;;;;;;5074425;28;20198;-49
2023/10/31 14:31:47;;;;;;;1.40;1.30;;;;;;;;;;5072617;28;20224;-50
2023/10/31 14:34:13;;;;;;;2.10;1.10;;;;;;;;;;5068900;28;20627;-49
2023/10/31 14:36:40;;;;;;;1.60;1.00;;;;;;;;;;5070723;28;20654;-49
2023/10/31 14:39:07;;;;;;;1.60;1.30;;;;;;;;;;5072406;28;20282;-49